Regional La Paz
EstaciónAerodromoSit. GeograficaDescripción
SLLPInternaciónal El Alto16-08S-68-10W SLLP 060200Z 11004KT 9999 FEW013 SCT070 BKN200 09/04 Q1041 A3074 630.0 HR68 NOSIG=
SLRYReyes14-18S-67-21W SLRY 211700Z 00000KT 9999 SCT015 BKN030 OVC080 25/22 Q1011 A2988 HR83 RWY WET OPR C206=
SLRQRurrenabaque14-25S-67-29W SLRQ 031700Z 00000KT 9999 SCT020 OVC200 24/24 Q1014 A2995 990.1 HR98 RERA=
SLAPApolo14-44S-68-24W SLAP 211700Z 00000KT 9999 SCT017 OVC070 20/19 Q1018 A3008 859.1 HR91=
SLSBSan Borja14-51S-66-44W SLSB 251700Z 28006KT 9999 BKN020 BKN200 32/27 Q1007 A2976 HR74 RWY NML=
SLCNCharaña17-35S-69-25W SLCN 112000Z
SLOROruro17-57S-67-04W SLOR 051600Z 24009KT 9999 SCT020 16/05 Q1036 A3060 656.8 HR49 CI=
SLUYUyuni20-27S-62-52W SLUY 051600Z 32012KT 9999 FEW025 BKN200 15/02 Q1035 A3057 659.1 HR42 AC=
SLCCCopacabana - Tito Yupanqui16-11S-69-05W SLCC 211200Z NIL=
Regional Cochabamba
EstaciónAerodromoSit. GeograficaDescripción
SLVMVillamontes21-15S-63-24W SLVM 271900Z 00000KT 9999 BKN020 OVC070 24/20 Q1009 A2982 HR78=
SLHIChimore16-58S-65-09W SLHI 202000Z NIL=
SLCBCochabamba17-25S-66-10W SLCB 060200Z 20003KT 9999 FEW033 BKN090 18/08 Q1024 A3025 750.8 HR52 NOSIG=
SLALAlcantari19-14S-65-09W SLAL 041300Z 00000KT 9999 FEW012 SCT015 14/11 Q1028 A3036 702.9 HR84=
SLPOPotosí19-32S-65-43W SLPO 311400Z 06004KT 9999 SCT017 FEW023TCU BKN070 12/06 Q1042 A3079 641.3 HR67 TCU/NE=
SLAGMonteagudo19-49S-63-58W SLAG 202000Z NIL=
SLTJTarija21-33S-64-42W SLTJ 021200Z 00000KT 9999 SCT025 BKN200 18/16 Q1026 A3030 819.9 HR86 AC=
SLYAYacuiba21-57S-63-39W SLYA 031600Z 00000KT 9999 FEW020 BKN070 20/14 Q1019 A3012 944.2 HR67=
SLBJBermejo22-46S-64-18W SLBJ 202000Z NIL=
Regional Santa Cruz
EstaciónAerodromoSit. GeograficaDescripción
SLVGValle Grande18-28S-64-05W SLVG 211700Z 00000KT 9999 BKN027 21/14 Q1023 A3021 HR64 RWY NML=
SLASAscención de Guarayos15-55S-63-09W SLAS 211700Z 18005KT 9999 OVC013 27/23 Q1013 A2991 HR78 RWY NML =
SLCPConcepción16-08S-62-01W SLCP 211700Z 30005KT 9999 OVC015 25/22 Q1014 A2994 HR82 RWY NML =
SLJVSan Javier16-16S-62-28W SLJV 211700Z 00000KT 9999 BKN015 23/22 Q1011 A2985 HR92 REFG RWY NML=
SLTISan Matías16-20S-58-24W SLTI 211700Z 00000KT 8000 -RA BKN013 BKN070 26/25 Q1014 A2994 HR96 RWY WET OPR=
SLSISan Ignacio de Velasco16-23S-60-57W SLSI 211700Z 00000KT 9999 BKN012 OVC070 25/23 Q1011 A2985 HR88 RWY WET OPR=
SLVRInternaciónal Viru Viru17-38S-63-08W SLVR 060200Z 35014KT 9999 SCT017 25/22 Q1010 A2982 HR82 CI NOSIG=
SLETEl Trompillo17-48S-63-10W SLET 052200Z 32015G25KT 9999 FEW015 29/22 Q1006 A2971 HR65 NOSIG=
SLJESan José de Chiquitos17-49S-60-44W SLJE 211700Z 00000KT 9999 BKN015 30/23 Q1013 A2991 HR69 RWY HUM OPR=
SLRBRoboré18-19S-59-45W SLRB 211700Z 00000KT 9999 BKN015 27/24 Q1013 A2991 HR86 RWY HUM OPR=
SLPSPuerto Suárez18-58S-57-49W SLPS 212200Z 00000KT 9999 SCT017 FEW027CB BKN070 27/25 Q1007 A2974 HR93 CB N/NE/NW=
SLCACamiri20-00S-63-31W SLCA 211700Z 36004KT 9999 FEW036 27/16 Q1016 A3000 HR53 RWY HUM OPR C210=
Regional Beni
EstaciónAerodromoSit. GeograficaDescripción
SLTRTrinidad14-49S-64-54W SLTR 052200Z 00000KT 9999 FEW020 FEW023CB BKN200 27/25 Q1008 A2977 989.5 HR91 CB N NOSIG=
SLCOCobija11-02S-68-47W SLCO 052200Z 35004KT 8000 TS VCSH FEW020 FEW023CB BKN200 28/24 Q1009 A2980 981.8 HR79 CB/TS/SH N/NE=
SLGMGuayaramerín10-53S-65-23W SLGM 052200Z NIL=
SLRIRiberalta11-00S-66-04W SLRI 052200Z NIL=
SLJOSan Joaquin13-03S-64-39W SLJO 052200Z NIL=
SLRASan Ramón13-15S-64-36W SLRA 052200Z NIL=
SLMGSan Magdalena13-15S-64-36W SLMG 052200Z NIL=
SLBUBaures13-39S-63-42W SLBU 052200Z NIL=
SLSASanta Ana de Yacuma13-45S-65-26W SLSA 052200Z NIL=
SLSRSanta Rosa14-04S-66-47W SLSR 052200Z NIL=
SLSMSan Ignacio de Moxos14-57S-65-38W SLSM 052200Z NIL=